sensor_id;sensor_type;location;lat;lon;timestamp;pressure;altitude;pressure_sealevel;temperature;humidity
71642;BME280;60657;50.122;14.468;2022-12-10T00:02:38;97154.95503221828;;;2.9217212176699476;78.24696726939803
71642;BME280;60657;50.122;14.468;2022-12-10T00:05:39;97157.3668550188;;;2.9056992446784164;78.20881971465629
71642;BME280;60657;50.122;14.468;2022-12-10T00:08:40;97158.96527946586;;;2.8629739833676666;78.55214770733195
71642;BME280;60657;50.122;14.468;2022-12-10T00:11:42;97161.46365095851;;;2.8255893797207605;78.42435339894713
71642;BME280;60657;50.122;14.468;2022-12-10T00:14:43;97150.05706303066;;;2.9671168078126158;78.1916533150225
71642;BME280;60657;50.122;14.468;2022-12-10T00:17:44;97146.85176231277;;;3.092622262912947;77.92843518730449
71642;BME280;60657;50.122;14.468;2022-12-10T00:20:45;97158.32264316555;;;3.071259632257572;77.86358434424353
71642;BME280;60657;50.122;14.468;2022-12-10T00:23:46;97153.35398375025;;;2.991149767299916;78.0009155413138
71642;BME280;60657;50.122;14.468;2022-12-10T00:26:47;97166.54230891207;;;3.0445563439383534;78.04859998474097
71642;BME280;60657;50.122;14.468;2022-12-10T00:29:48;97162.42084692827;;;3.0178530556191348;78.17639429312581
71642;BME280;60657;50.122;14.468;2022-12-10T00:32:49;97166.48337363546;;;2.9938200961318344;78.18593118181124
71642;BME280;60657;50.122;14.468;2022-12-10T00:35:51;97163.32439846171;;;3.1540398260471534;77.90745403219654
71642;BME280;60657;50.122;14.468;2022-12-10T00:38:51;97176.45702849806;;;3.033875028610666;78.17448691538873
71642;BME280;60657;50.122;14.468;2022-12-10T00:41:53;97164.90526757395;;;3.02052338445106;78.1191729610132
71642;BME280;60657;50.122;14.468;2022-12-10T00:44:54;97169.695026696;;;2.9297322041657097;78.45296406500343
71642;BME280;60657;50.122;14.468;2022-12-10T00:47:55;97176.23992165527;;;2.84428168154421;78.61509117265584
71642;BME280;60657;50.122;14.468;2022-12-10T00:50:57;97164.79829544417;;;2.9056992446784164;78.49683375295643
71642;BME280;60657;50.122;14.468;2022-12-10T00:53:59;97167.19650679416;;;2.8122377355611476;78.67421988250553
71642;BME280;60657;50.122;14.468;2022-12-10T00:57:00;97177.81067439451;;;2.814908064393073;78.86495765621423
71642;BME280;60657;50.122;14.468;2022-12-10T01:00:02;97182.78427017968;;;2.8549629968718975;78.90882734416724
71642;BME280;60657;50.122;14.468;2022-12-10T01:03:05;97173.76649986558;;;2.857633325703823;78.80582894636454
71642;BME280;60657;50.122;14.468;2022-12-10T01:06:08;97176.99939018488;;;2.7668421454184795;79.02899214160372
71642;BME280;60657;50.122;14.468;2022-12-10T01:09:11;97181.18687374976;;;2.8896772716868853;78.6341649500267
71642;BME280;60657;50.122;14.468;2022-12-10T01:12:14;97177.93938271585;;;2.9217212176699476;78.55024032959487
71642;BME280;60657;50.122;14.468;2022-12-10T01:15:15;97191.08121187965;;;2.9671168078126158;78.62653543907835
71642;BME280;60657;50.122;14.468;2022-12-10T01:18:17;97182.07408787208;;;2.99649042496376;78.28320744640268
71642;BME280;60657;50.122;14.468;2022-12-10T01:21:19;97187.00863826393;;;2.9804684519722286;78.38811322194248
71642;BME280;60657;50.122;14.468;2022-12-10T01:24:21;97179.68519630517;;;3.0605783169298846;78.22407873655298
71642;BME280;60657;50.122;14.468;2022-12-10T01:27:23;97190.34330899686;;;3.0018310826276036;78.19928282597085
71642;BME280;60657;50.122;14.468;2022-12-10T01:30:24;97182.93516743407;;;2.9644464789806975;78.33089188982986
71642;BME280;60657;50.122;14.468;2022-12-10T01:33:26;97186.22090092947;;;3.0098420691233727;78.31563286793316
71642;BME280;60657;50.122;14.468;2022-12-10T01:36:27;97181.26192422803;;;2.983138780804147;78.46250095368887
71642;BME280;60657;50.122;14.468;2022-12-10T01:39:30;97182.92304671771;;;3.028534370946822;78.40527962157626
71642;BME280;60657;50.122;14.468;2022-12-10T01:42:32;97182.03671068409;;;2.961776150148772;78.50446326390478
71642;BME280;60657;50.122;14.468;2022-12-10T01:45:33;97182.08638181965;;;2.9777981231403032;78.41672388799878
71642;BME280;60657;50.122;14.468;2022-12-10T01:48:34;97182.8861891409;;;3.047226672770279;78.44533455405508
71642;BME280;60657;50.122;14.468;2022-12-10T01:51:36;97186.2329892792;;;2.99649042496376;78.29083695735103
71642;BME280;60657;50.122;14.468;2022-12-10T01:54:40;97192.65298113872;;;2.8709849698634287;78.81536583504997
71642;BME280;60657;50.122;14.468;2022-12-10T01:57:43;97199.326935469;;;2.9804684519722286;78.57122148470283
71642;BME280;60657;50.122;14.468;2022-12-10T02:00:47;97196.85317622956;;;3.041886015106435;78.41672388799878
71642;BME280;60657;50.122;14.468;2022-12-10T02:04:04;97191.13118776164;;;2.991149767299916;78.42626077668422
71642;BME280;60657;50.122;14.468;2022-12-10T02:07:20;97191.10636494825;;;2.9858091096360724;78.51972228580148
71642;BME280;60657;50.122;14.468;2022-12-10T02:10:32;97185.35964656863;;;2.9644464789806975;78.75432974746319
71642;BME280;60657;50.122;14.468;2022-12-10T02:13:47;97188.64525163363;;;2.8896772716868853;78.71999694819561
71642;BME280;60657;50.122;14.468;2022-12-10T02:17:01;97189.45730075642;;;2.9671168078126158;78.68757152666514
71642;BME280;60657;50.122;14.468;2022-12-10T02:20:11;97190.243953162;;;2.9217212176699476;78.62462806134127
71642;BME280;60657;50.122;14.468;2022-12-10T02:23:20;97189.51881935733;;;3.0231937132829785;78.4281681544213
71642;BME280;60657;50.122;14.468;2022-12-10T02:26:28;97190.37920483526;;;3.0872816052491032;78.27939269092852
71642;BME280;60657;50.122;14.468;2022-12-10T02:29:38;97193.60476563191;;;3.0071717402914473;78.38811322194248
71642;BME280;60657;50.122;14.468;2022-12-10T02:32:44;97204.17168263001;;;2.9056992446784164;78.71999694819561
71642;BME280;60657;50.122;14.468;2022-12-10T02:35:50;97196.85317622956;;;2.999160753795678;78.68375677119097
71642;BME280;60657;50.122;14.468;2022-12-10T02:38:56;97203.42470709066;;;2.9297322041657097;78.76005188067445
71642;BME280;60657;50.122;14.468;2022-12-10T02:42:03;97217.36709592471;;;2.991149767299916;78.74860761425192
71642;BME280;60657;50.122;14.468;2022-12-10T02:45:09;97218.20485489574;;;2.9884794384679907;78.7676813916228
71642;BME280;60657;50.122;14.468;2022-12-10T02:48:12;97215.71761302969;;;2.9350728618295534;79.02136263065537
71642;BME280;60657;50.122;14.468;2022-12-10T02:51:15;97212.41869543317;;;2.9671168078126158;78.89356832227054
71642;BME280;60657;50.122;14.468;2022-12-10T02:54:49;97206.68487062461;;;2.937743190661479;79.05569542992295
71642;BME280;60657;50.122;14.468;2022-12-10T02:57:55;97209.17174845691;;;3.047226672770279;78.81536583504997
71642;BME280;60657;50.122;14.468;2022-12-10T03:01:21;97214.87975120654;;;3.0178530556191348;78.99847409781033
71642;BME280;60657;50.122;14.468;2022-12-10T03:04:36;97214.06814619873;;;3.0312046997787476;78.85732814526588
71642;BME280;60657;50.122;14.468;2022-12-10T03:07:49;97219.01659488257;;;3.0178530556191348;78.93171587701228
71642;BME280;60657;50.122;14.468;2022-12-10T03:10:58;97218.21778382492;;;3.012512397955291;79.11863889524682
71642;BME280;60657;50.122;14.468;2022-12-10T03:14:09;97222.2225318297;;;2.8629739833676666;79.32082093537804
71642;BME280;60657;50.122;14.468;2022-12-10T03:17:15;97222.2360807814;;;2.9484245059891663;79.48676279850461
71642;BME280;60657;50.122;14.468;2022-12-10T03:20:18;97232.10720012888;;;2.9564354924849283;79.4600595101854
71642;BME280;60657;50.122;14.468;2022-12-10T03:23:22;97232.94561102541;;;2.9804684519722286;79.36278324559396
71642;BME280;60657;50.122;14.468;2022-12-10T03:26:24;97234.55459721702;;;2.9484245059891663;79.4161898222324
71642;BME280;60657;50.122;14.468;2022-12-10T03:29:29;97238.65168296326;;;2.932402532997635;79.4009308003357
71642;BME280;60657;50.122;14.468;2022-12-10T03:32:37;97249.40363936915;;;3.012512397955291;79.35133897917143
71642;BME280;60657;50.122;14.468;2022-12-10T03:35:38;97242.77646758716;;;2.9644464789806975;79.297932402533
71642;BME280;60657;50.122;14.468;2022-12-10T03:38:41;97238.65168296326;;;2.9724574654764595;79.50583657587549
71642;BME280;60657;50.122;14.468;2022-12-10T03:41:43;97230.48446218541;;;3.047226672770279;79.31319142442969
71642;BME280;60657;50.122;14.468;2022-12-10T03:44:45;97221.42473922927;;;2.937743190661479;79.57259479667353
71642;BME280;60657;50.122;14.468;2022-12-10T03:47:51;97224.71055302031;;;2.919050888838022;79.3265430685893
71642;BME280;60657;50.122;14.468;2022-12-10T03:50:54;97226.26392817497;;;2.919050888838022;79.76333257038223
71642;BME280;60657;50.122;14.468;2022-12-10T03:53:55;97221.43813117866;;;2.9671168078126158;79.43907835507744
71642;BME280;60657;50.122;14.468;2022-12-10T03:56:57;97218.20485489574;;;2.9484245059891663;79.51155870908674
71642;BME280;60657;50.122;14.468;2022-12-10T03:59:58;97218.96375562511;;;2.919050888838022;79.42381933318075
71642;BME280;60657;50.122;14.468;2022-12-10T04:02:59;97223.85857679234;;;2.8629739833676666;79.73281452658884
71642;BME280;60657;50.122;14.468;2022-12-10T04:06:01;97215.67801042588;;;2.945754177157241;79.56496528572518
71642;BME280;60657;50.122;14.468;2022-12-10T04:09:03;97218.9095956838;;;2.932402532997635;79.66224155031662
71642;BME280;60657;50.122;14.468;2022-12-10T04:12:05;97212.40554478807;;;3.0445563439383534;79.5039291981384
71642;BME280;60657;50.122;14.468;2022-12-10T04:15:07;97210.7692607342;;;2.95376516365301;79.59548332951857
71642;BME280;60657;50.122;14.468;2022-12-10T04:18:09;97212.41869543317;;;2.95376516365301;79.42191195544366
71642;BME280;60657;50.122;14.468;2022-12-10T04:21:10;97209.01206763645;;;2.84428168154421;79.85679407949951
71642;BME280;60657;50.122;14.468;2022-12-10T04:24:11;97213.96075928713;;;2.9056992446784164;79.78622110322728
71642;BME280;60657;50.122;14.468;2022-12-10T04:27:16;97223.0473599684;;;2.9056992446784164;79.64698252841993
71642;BME280;60657;50.122;14.468;2022-12-10T04:30:19;97211.60705225104;;;2.9804684519722286;79.49629968719005
71642;BME280;60657;50.122;14.468;2022-12-10T04:33:21;97207.47043954127;;;2.95376516365301;79.51537346456092
71642;BME280;60657;50.122;14.468;2022-12-10T04:36:22;97208.26867419005;;;2.916380560006104;79.68894483863585
71642;BME280;60657;50.122;14.468;2022-12-10T04:39:23;97211.48639536642;;;2.80155642023346;79.64507515068284
71642;BME280;60657;50.122;14.468;2022-12-10T04:42:24;97212.255440968;;;2.7801937895780853;80.05706874189364
71642;BME280;60657;50.122;14.468;2022-12-10T04:45:26;97208.1734485984;;;2.798886091401542;80.12764171816586
71642;BME280;60657;50.122;14.468;2022-12-10T04:48:27;97208.10295552295;;;2.710765239948117;80.31265735866332
71642;BME280;60657;50.122;14.468;2022-12-10T04:51:28;97201.54730722759;;;2.7801937895780853;80.06660563057908
71642;BME280;60657;50.122;14.468;2022-12-10T04:54:30;97203.9355286393;;;2.6947432669565856;80.41947051194019
71642;BME280;60657;50.122;14.468;2022-12-10T04:57:31;97208.79576217209;;;2.622644388494699;80.52437628747997
71642;BME280;60657;50.122;14.468;2022-12-10T05:00:32;97212.08030930649;;;2.5986114290073985;80.80857557030595
71642;BME280;60657;50.122;14.468;2022-12-10T05:03:38;97209.62065483558;;;2.6066224155031676;80.71511406118867
71642;BME280;60657;50.122;14.468;2022-12-10T05:06:39;97212.84424344425;;;2.587930113679711;80.98214694438086
71642;BME280;60657;50.122;14.468;2022-12-10T05:09:40;97209.52898802879;;;2.5532158388647304;80.96498054474708
71642;BME280;60657;50.122;14.468;2022-12-10T05:12:42;97192.37372207237;;;2.6440070191500737;80.99740596627755
71642;BME280;60657;50.122;14.468;2022-12-10T05:15:43;97203.8615364867;;;2.601281757839324;80.92874036774242
71642;BME280;60657;50.122;14.468;2022-12-10T05:18:44;97188.82702055325;;;2.3716334782940436;81.58869306477455
71642;BME280;60657;50.122;14.468;2022-12-10T05:21:46;97201.27976095652;;;2.454413672083618;81.27779049362935
71642;BME280;60657;50.122;14.468;2022-12-10T05:24:48;97210.36940866243;;;2.5104905775539805;81.20531013962005
71642;BME280;60657;50.122;14.468;2022-12-10T05:27:49;97206.26019818058;;;2.579919127183949;80.97642481116961
71642;BME280;60657;50.122;14.468;2022-12-10T05:30:51;97213.6998365083;;;2.6279850461585426;80.9172961013199
71642;BME280;60657;50.122;14.468;2022-12-10T05:33:53;97216.17467146422;;;2.6066224155031676;80.83146410315099
71642;BME280;60657;50.122;14.468;2022-12-10T05:36:55;97215.30368695238;;;2.5104905775539805;81.05271992065309
71642;BME280;60657;50.122;14.468;2022-12-10T05:39:57;97219.38193632652;;;2.52918287937743;81.12138551918822
71642;BME280;60657;50.122;14.468;2022-12-10T05:42:58;97217.58735196706;;;2.4063477531090243;81.4933241779202
71642;BME280;60657;50.122;14.468;2022-12-10T05:46:00;97217.60374374324;;;2.4517433432516995;81.49713893339437
71642;BME280;60657;50.122;14.468;2022-12-10T05:49:02;97217.66848752002;;;2.5612268253604924;81.23201342793926
71642;BME280;60657;50.122;14.468;2022-12-10T05:52:05;97218.4288172084;;;2.427710383764399;81.32928969253071
71642;BME280;60657;50.122;14.468;2022-12-10T05:55:07;97223.28009380569;;;2.4437323567559304;81.46280613412681
71642;BME280;60657;50.122;14.468;2022-12-10T05:58:08;97221.596032846;;;2.360952162966356;81.70695048447395
71642;BME280;60657;50.122;14.468;2022-12-10T06:01:11;97224.10524359599;;;2.390325780117493;81.81567101548791
71642;BME280;60657;50.122;14.468;2022-12-10T06:04:14;97225.09400536049;;;2.446402685587856;81.54100862134737
71642;BME280;60657;50.122;14.468;2022-12-10T06:07:16;97227.53723589116;;;2.5185015640497426;81.26825360494392
71642;BME280;60657;50.122;14.468;2022-12-10T06:10:17;97237.37413983731;;;2.537193865873199;81.270160982681
71642;BME280;60657;50.122;14.468;2022-12-10T06:13:19;97244.73530076633;;;2.499809262226293;81.33119707026779
71642;BME280;60657;50.122;14.468;2022-12-10T06:16:20;97242.25956068543;;;2.4517433432516995;81.44373235675593
71642;BME280;60657;50.122;14.468;2022-12-10T06:19:22;97244.73530076633;;;2.5104905775539805;81.18432898451209
71642;BME280;60657;50.122;14.468;2022-12-10T06:22:23;97245.52724664212;;;2.4650949874113053;81.50095368886855
71642;BME280;60657;50.122;14.468;2022-12-10T06:25:25;97245.4766657628;;;2.4517433432516995;81.63065537499047
71642;BME280;60657;50.122;14.468;2022-12-10T06:28:26;97252.11284453372;;;2.441062027924012;81.58869306477455
71642;BME280;60657;50.122;14.468;2022-12-10T22:15:10;97441.49646286221;;;1.4423590447852277;78.94316014343481
71642;BME280;60657;50.122;14.468;2022-12-10T22:18:14;97456.2018296238;;;1.4343480582894657;78.72190432593271
71642;BME280;60657;50.122;14.468;2022-12-10T22:21:17;97460.23010907316;;;1.3942931258106341;78.61318379491874
71642;BME280;60657;50.122;14.468;2022-12-10T22:24:19;97461.91277530095;;;1.4423590447852277;78.29846646829938
71642;BME280;60657;50.122;14.468;2022-12-10T22:27:21;97461.13990483563;;;1.4423590447852277;78.18020904859999
71642;BME280;60657;50.122;14.468;2022-12-10T22:30:22;97452.14566091516;;;1.437018387121384;78.22980086976425
71642;BME280;60657;50.122;14.468;2022-12-10T22:33:24;97456.14717943594;;;1.3248645761806657;78.82871747920959
71642;BME280;60657;50.122;14.468;2022-12-10T22:36:26;97447.95391685051;;;1.3916227969787158;78.49874113069352
71642;BME280;60657;50.122;14.468;2022-12-10T22:39:28;97456.06458997479;;;1.3916227969787158;78.08102540627146
71642;BME280;60657;50.122;14.468;2022-12-10T22:42:30;97467.48436949473;;;1.3141832608529782;77.27611200122072
71642;BME280;60657;50.122;14.468;2022-12-10T22:45:32;97462.4620164543;;;1.26878767071031;76.85648889906157
71642;BME280;60657;50.122;14.468;2022-12-10T22:48:34;97461.54921815984;;;1.2527656977187789;76.7058060578317
71642;BME280;60657;50.122;14.468;2022-12-10T22:51:37;97461.57767519265;;;1.2634470130464663;76.39871824216068
71642;BME280;60657;50.122;14.468;2022-12-10T22:54:39;97460.74999087883;;;1.2661173418783847;76.43114366369116
71642;BME280;60657;50.122;14.468;2022-12-10T22:57:41;97472.90761535545;;;1.1673151750972792;76.778286411841
71642;BME280;60657;50.122;14.468;2022-12-10T23:00:44;97473.87958245107;;;1.276798657206072;76.62378881513695
71642;BME280;60657;50.122;14.468;2022-12-10T23:03:47;97473.850915928;;;1.210040436408029;76.72678721293966
71642;BME280;60657;50.122;14.468;2022-12-10T23:06:50;97468.14242659387;;;1.2500953688868535;76.99382009613184
71642;BME280;60657;50.122;14.468;2022-12-10T23:09:52;97463.233056079;;;1.218051422903791;77.18265049210346
71642;BME280;60657;50.122;14.468;2022-12-10T23:12:54;97453.44246642805;;;1.276798657206072;77.71862363622492
71642;BME280;60657;50.122;14.468;2022-12-10T23:15:55;97451.81532248293;;;1.2821393148699158;77.39055466544595
71642;BME280;60657;50.122;14.468;2022-12-10T23:18:57;97440.25754872554;;;1.1833371480888104;77.40199893186846
71642;BME280;60657;50.122;14.468;2022-12-10T23:21:59;97434.54891232433;;;1.2554360265506972;77.25513084611276
71642;BME280;60657;50.122;14.468;2022-12-10T23:25:02;97438.71410506943;;;1.2661173418783847;77.37338826581217
71642;BME280;60657;50.122;14.468;2022-12-10T23:28:04;97436.14802006875;;;1.1966887922484162;77.7357900358587
71642;BME280;60657;50.122;14.468;2022-12-10T23:31:05;97437.74687970555;;;1.1272602426184477;78.01808194094758
71642;BME280;60657;50.122;14.468;2022-12-10T23:34:07;97444.22570302487;;;1.0791943236438541;78.18402380407416
71642;BME280;60657;50.122;14.468;2022-12-10T23:37:09;97443.34093481225;;;1.172655832761123;78.22407873655298
71642;BME280;60657;50.122;14.468;2022-12-10T23:40:12;97449.07686991093;;;1.0818646524757796;77.80827038986801
71642;BME280;60657;50.122;14.468;2022-12-10T23:43:13;97452.27185112934;;;1.0311284046692606;77.91508354314489
71642;BME280;60657;50.122;14.468;2022-12-10T23:46:15;97441.5993077042;;;1.0391393911650297;77.92080567635614
71642;BME280;60657;50.122;14.468;2022-12-10T23:49:17;97439.14538153294;;;1.012436102845811;77.96467536430914
71642;BME280;60657;50.122;14.468;2022-12-10T23:52:20;97452.95319167135;;;1.0444800488288735;78.11535820553902
71642;BME280;60657;50.122;14.468;2022-12-10T23:55:22;97446.53617348193;;;1.0578316929884792;78.15922789349203
71642;BME280;60657;50.122;14.468;2022-12-10T23:58:24;97440.11628829912;;;1.1619745174334355;77.71290150301365
